地図

経路データ

SID SEASON NUMBER BASIN SUBBASIN NAME ISO_TIME NATURE LAT LON WMO_WIND WMO_PRES WMO_AGENCY TRACK_TYPE DIST2LAND LANDFALL IFLAG USA_AGENCY USA_ATCF_ID USA_LAT USA_LON USA_RECORD USA_STATUS USA_WIND USA_PRES USA_SSHS USA_R34_NE USA_R34_SE USA_R34_SW USA_R34_NW USA_R50_NE USA_R50_SE USA_R50_SW USA_R50_NW USA_R64_NE USA_R64_SE USA_R64_SW USA_R64_NW USA_POCI USA_ROCI USA_RMW USA_EYE TOKYO_LAT TOKYO_LON TOKYO_GRADE TOKYO_WIND TOKYO_PRES TOKYO_R50_DIR TOKYO_R50_LONG TOKYO_R50_SHORT TOKYO_R30_DIR TOKYO_R30_LONG TOKYO_R30_SHORT TOKYO_LAND CMA_LAT CMA_LON CMA_CAT CMA_WIND CMA_PRES HKO_LAT HKO_LON HKO_CAT HKO_WIND HKO_PRES NEWDELHI_LAT NEWDELHI_LON NEWDELHI_GRADE NEWDELHI_WIND NEWDELHI_PRES NEWDELHI_CI NEWDELHI_DP NEWDELHI_POCI REUNION_LAT REUNION_LON REUNION_TYPE REUNION_WIND REUNION_PRES REUNION_TNUM REUNION_CI REUNION_RMW REUNION_R34_NE REUNION_R34_SE REUNION_R34_SW REUNION_R34_NW REUNION_R50_NE REUNION_R50_SE REUNION_R50_SW REUNION_R50_NW REUNION_R64_NE REUNION_R64_SE REUNION_R64_SW REUNION_R64_NW BOM_LAT BOM_LON BOM_TYPE BOM_WIND BOM_PRES BOM_TNUM BOM_CI BOM_RMW BOM_R34_NE BOM_R34_SE BOM_R34_SW BOM_R34_NW BOM_R50_NE BOM_R50_SE BOM_R50_SW BOM_R50_NW BOM_R64_NE BOM_R64_SE BOM_R64_SW BOM_R64_NW BOM_ROCI BOM_POCI BOM_EYE BOM_POS_METHOD BOM_PRES_METHOD NADI_LAT NADI_LON NADI_CAT NADI_WIND NADI_PRES WELLINGTON_LAT WELLINGTON_LON WELLINGTON_WIND WELLINGTON_PRES DS824_LAT DS824_LON DS824_STAGE DS824_WIND DS824_PRES TD9636_LAT TD9636_LON TD9636_STAGE TD9636_WIND TD9636_PRES TD9635_LAT TD9635_LON TD9635_WIND TD9635_PRES TD9635_ROCI NEUMANN_LAT NEUMANN_LON NEUMANN_CLASS NEUMANN_WIND NEUMANN_PRES MLC_LAT MLC_LON MLC_CLASS MLC_WIND MLC_PRES USA_GUST BOM_GUST BOM_GUST_PER REUNION_GUST REUNION_GUST_PER USA_SEAHGT USA_SEARAD_NE USA_SEARAD_SE USA_SEARAD_SW USA_SEARAD_NW STORM_SPEED STORM_DIR
1996354S05170 1997 123 SP MM FERGUS 1996-12-19 06:00:00 TS -4.90000 170.100 main 1077 1034 O___________O_ jtwc_sh SH131997 -4.90000 170.100 15 -1 -4.90000 170.100 TC 15 10 271
1996354S05170 1997 123 SP MM FERGUS 1996-12-19 09:00:00 TS -4.89257 169.602 main 1034 986 P___________P_ SH131997 -4.89257 169.602 15 -1 -4.89257 169.602 TC 15 10 270
1996354S05170 1997 123 SP MM FERGUS 1996-12-19 12:00:00 TS -4.90000 169.100 main 986 936 O___________O_ jtwc_sh SH131997 -4.90000 169.100 15 -1 -4.90000 169.100 TC 15 10 268
1996354S05170 1997 123 SP MM FERGUS 1996-12-19 15:00:00 TS -4.93498 168.593 main 936 882 P___________P_ SH131997 -4.93498 168.593 17 -1 -4.93498 168.593 TC 17 10 264
1996354S05170 1997 123 SP MM FERGUS 1996-12-19 18:00:00 TS -5.00000 168.100 main 882 837 O___________O_ jtwc_sh SH131997 -5.00000 168.100 20 -1 -5.00000 168.100 TC 20 10 261
1996354S05170 1997 123 SP MM FERGUS 1996-12-19 21:00:00 TS -5.08497 167.635 main 827 783 P___________P_ SH131997 -5.08497 167.635 20 -1 -5.08497 167.635 TC 20 9 257
1996354S05170 1997 123 SP MM FERGUS 1996-12-20 00:00:00 TS -5.20000 167.200 main 783 739 O___________O_ jtwc_sh SH131997 -5.20000 167.200 20 -1 -5.20000 167.200 TC 20 9 254
1996354S05170 1997 123 SP MM FERGUS 1996-12-20 03:00:00 TS -5.33497 166.785 main 739 690 P___________P_ SH131997 -5.33497 166.785 20 -1 -5.33497 166.785 TC 20 9 249
1996354S05170 1997 123 SP MM FERGUS 1996-12-20 06:00:00 TS -5.50000 166.400 main 690 640 O___________O_ jtwc_sh SH131997 -5.50000 166.400 20 -1 -5.50000 166.400 TC 20 8 246
1996354S05170 1997 123 SP MM FERGUS 1996-12-20 09:00:00 TS -5.67000 166.020 main 640 600 P___________P_ SH131997 -5.67000 166.020 20 -1 -5.67000 166.020 TC 20 8 240
1996354S05170 1997 123 SP MM FERGUS 1996-12-20 12:00:00 TS -5.90000 165.700 main 600 564 O___________O_ jtwc_sh SH131997 -5.90000 165.700 20 -1 -5.90000 165.700 TC 20 8 224
1996354S05170 1997 123 SP MM FERGUS 1996-12-20 15:00:00 TS -6.23497 165.470 main 564 524 P___________P_ SH131997 -6.23497 165.470 20 -1 -6.23497 165.470 TC 20 8 210
1996354S05170 1997 123 SP MM FERGUS 1996-12-20 18:00:00 TS -6.60000 165.300 main 524 500 O___________O_ jtwc_sh SH131997 -6.60000 165.300 20 -1 -6.60000 165.300 TC 20 8 205
1996354S05170 1997 123 SP MM FERGUS 1996-12-20 21:00:00 TS -6.91497 165.157 main 500 465 P___________P_ SH131997 -6.91497 165.157 20 -1 -6.91497 165.157 TC 20 7 206
1996354S05170 1997 123 SP MM FERGUS 1996-12-21 00:00:00 TS -7.20000 165.000 main 465 435 O___________O_ jtwc_sh SH131997 -7.20000 165.000 20 -1 -7.20000 165.000 TC 20 7 216
1996354S05170 1997 123 SP MM FERGUS 1996-12-21 03:00:00 TS -7.44999 164.772 main 435 390 P___________P_ SH131997 -7.44999 164.772 20 -1 -7.44999 164.772 TC 20 7 225
1996354S05170 1997 123 SP MM FERGUS 1996-12-21 06:00:00 TS -7.70000 164.500 main 390 346 O___________O_ jtwc_sh SH131997 -7.70000 164.500 20 -1 -7.70000 164.500 TC 20 8 226
1996354S05170 1997 123 SP MM FERGUS 1996-12-21 09:00:00 TS -7.98499 164.207 main 346 303 P___________P_ SH131997 -7.98499 164.207 20 -1 -7.98499 164.207 TC 20 8 225
1996354S05170 1997 123 SP MM FERGUS 1996-12-21 12:00:00 TS -8.30000 163.900 main 303 261 O___________O_ jtwc_sh SH131997 -8.30000 163.900 20 -1 -8.30000 163.900 TC 20 9 222
1996354S05170 1997 123 SP MM FERGUS 1996-12-21 15:00:00 TS -8.64246 163.607 main 261 216 P___________P_ SH131997 -8.64246 163.607 20 -1 -8.64246 163.607 TC 20 9 220
1996354S05170 1997 123 SP MM FERGUS 1996-12-21 18:00:00 TS -9.00000 163.300 main 216 169 O___________O_ jtwc_sh SH131997 -9.00000 163.300 20 -1 -9.00000 163.300 TC 20 10 223
1996354S05170 1997 123 SP MM FERGUS 1996-12-21 21:00:00 TS -9.34249 162.957 main 169 109 P___________P_ SH131997 -9.34249 162.957 20 -1 -9.34249 162.957 TC 20 10 225
1996354S05170 1997 123 SP MM FERGUS 1996-12-22 00:00:00 TS -9.70000 162.600 main 109 55 O___________O_ jtwc_sh SH131997 -9.70000 162.600 20 -1 -9.70000 162.600 TC 20 10 223
1996354S05170 1997 123 SP MM FERGUS 1996-12-22 03:00:00 TS -10.0925 162.242 main 49 0 P___________P_ SH131997 -10.0925 162.242 20 -1 -10.0925 162.242 TC 20 11 221
1996354S05170 1997 123 SP MM FERGUS 1996-12-22 06:00:00 TS -10.5000 161.900 main 0 0 O___________O_ jtwc_sh SH131997 -10.5000 161.900 20 -1 -10.5000 161.900 TC 20 11 218
1996354S05170 1997 123 SP MM FERGUS 1996-12-22 09:00:00 TS -10.9150 161.577 main 24 24 P___________P_ SH131997 -10.9150 161.577 20 -1 -10.9150 161.577 TC 20 10 216
1996354S05170 1997 123 SP MM FERGUS 1996-12-22 12:00:00 TS -11.3000 161.300 main 78 78 O___________O_ jtwc_sh SH131997 -11.3000 161.300 20 -1 -11.3000 161.300 TC 20 9 215
1996354S05170 1997 123 SP MM FERGUS 1996-12-22 15:00:00 TS -11.6225 161.077 main 117 117 P___________P_ SH131997 -11.6225 161.077 20 -1 -11.6225 161.077 TC 20 7 213
1996354S05170 1997 123 SP MM FERGUS 1996-12-22 18:00:00 TS -11.9000 160.900 main 157 157 O___________O_ jtwc_sh SH131997 -11.9000 160.900 20 -1 -11.9000 160.900 TC 20 6 211
1996354S05170 1997 123 SP MM FERGUS 1996-12-22 21:00:00 TS -12.1725 160.742 main 197 197 P___________P_ SH131997 -12.1725 160.742 20 -1 -12.1725 160.742 TC 20 4 215
1996354S05170 1997 123 SP MM FERGUS 1996-12-23 00:00:00 TS -12.2400 160.660 20 1002 nadi main 197 197 O_______O___O_ jtwc_sh SH131997 -12.4000 160.600 20 -1 -11.6000 160.900 20 1002 -11.6000 160.900 20 1002 -12.4000 160.600 TC 20 2 230
1996354S05170 1997 123 SP MM FERGUS 1996-12-23 03:00:00 TS -12.3342 160.550 main 212 212 P______IP___P_ SH131997 -12.5650 160.450 22 -1 -11.8725 160.750 22 1001 -11.8725 160.750 22 1001 -12.5650 160.450 TC 22 3 229
1996354S05170 1997 123 SP MM FERGUS 1996-12-23 06:00:00 TS -12.4533 160.407 25 1000 nadi main 243 243 O_____O_O___O_ jtwc_sh SH131997 -12.7000 160.300 25 -1 -12.6000 160.100 21 35 996 2.50000 -12.1000 160.600 25 1000 -12.1000 160.600 25 1000 -12.7000 160.300 TC 25 4 229
1996354S05170 1997 123 SP MM FERGUS 1996-12-23 09:00:00 TS -12.5800 160.262 main 259 259 P_____PIP___P_ SH131997 -12.8650 160.150 25 -1 -12.7300 159.958 21 35 996 -12.2575 160.450 27 999 -12.2575 160.450 27 999 -12.8650 160.150 TC 25 4 228
1996354S05170 1997 123 SP MM FERGUS 1996-12-23 12:00:00 TS -12.7158 160.111 35 996 bom main 280 280 O_____O_O___O_ jtwc_sh SH131997 -13.0000 160.000 25 -1 -12.8000 159.900 21 35 996 2.50000 -12.4000 160.300 30 998 -12.4000 160.300 30 998 -13.0000 160.000 TC 25 4 227
1996354S05170 1997 123 SP EA FERGUS 1996-12-23 15:00:00 TS -12.8200 159.996 main 295 295 P_____PIP___P_ SH131997 -13.0650 159.850 27 -1 -12.7850 159.965 21 35 995 -12.5925 160.157 32 996 -12.5925 160.157 32 996 -13.0650 159.850 TC 27 3 228
1996354S05170 1997 123 SP EA FERGUS 1996-12-23 18:00:00 TS -12.9200 159.880 35 995 bom main 311 311 O_____O_O___O_ jtwc_sh SH131997 -13.1000 159.700 30 -1 -12.8000 160.000 21 35 995 2.50000 106 -12.8000 160.000 35 995 -12.8000 160.000 35 995 -13.1000 159.700 TC 30 4 228
1996354S05170 1997 123 SP EA FERGUS 1996-12-23 21:00:00 TS -13.0780 159.703 main 341 341 P_____PIP___P_ SH131997 -13.1650 159.565 32 -1 -13.0001 159.815 21 35 995 166 -13.0300 159.785 35 995 -13.0300 159.785 35 995 -13.1650 159.565 TC 32 5 231
1996354S05170 1997 123 SP EA FERGUS 1996-12-24 00:00:00 TS -13.2000 159.520 35 995 bom main 363 363 O_____O_O___O_ jtwc_sh SH131997 -13.2000 159.400 35 0 -13.2000 159.600 21 35 995 2.50000 226 -13.2000 159.600 35 995 -13.2000 159.600 35 995 -13.2000 159.400 TC 35 3 241
1996354S05170 1997 123 SP EA FERGUS 1996-12-24 03:00:00 TS -13.2384 159.407 main 370 370 P_____PIP___P_ SH131997 -13.1950 159.158 37 0 -13.2674 159.573 21 37 995 226 -13.2674 159.573 35 995 -13.2674 159.573 35 995 -13.1950 159.158 TC 37 3 279
1996354S05170 1997 123 SP EA FERGUS 1996-12-24 06:00:00 TS -13.1600 159.260 40 995 bom main 377 357 O_____O_O___O_ jtwc_sh SH131997 -13.1000 158.900 40 0 -13.2000 159.500 21 40 995 2.50000 226 -13.2000 159.500 35 995 -13.2000 159.500 35 995 -13.1000 158.900 TC 40 5 309
1996354S05170 1997 123 SP EA FERGUS 1996-12-24 09:00:00 TS -12.9160 158.994 main 357 342 P_____PIP___P_ SH131997 -12.8875 158.670 42 0 -12.9350 159.210 21 40 995 247 -12.9350 159.210 35 995 -12.9350 159.210 35 995 -12.8875 158.670 TC 42 8 311
1996354S05170 1997 123 SP EA FERGUS 1996-12-24 12:00:00 TS -12.6600 158.680 40 995 bom main 346 339 O_____O_O___O_ jtwc_sh SH131997 -12.6000 158.500 45 0 -12.7000 158.800 30 40 995 3.00000 268 -12.7000 158.800 35 995 -12.7000 158.800 35 995 -12.6000 158.500 TC 45 7 293
1996354S05170 1997 123 SP EA FERGUS 1996-12-24 15:00:00 TS -12.6391 158.333 main 353 353 P_____PIP___P_ SH131997 -12.3075 158.397 47 0 -12.8602 158.290 30 45 990 284 -12.8602 158.290 42 990 -12.8602 158.290 42 990 -12.3075 158.397 TC 47 6 282
1996354S05170 1997 123 SP EA FERGUS 1996-12-24 18:00:00 TS -12.5400 158.100 50 985 bom main 354 317 O_____O_O___O_ jtwc_sh SH131997 -12.0000 158.400 50 0 -12.9000 157.900 30 50 985 3.50000 301 -12.9000 157.900 50 985 -12.9000 157.900 50 985 -12.0000 158.400 TC 50 6 337
1996354S05170 1997 123 SP EA FERGUS 1996-12-24 21:00:00 TS -12.0538 158.082 main 317 251 P_____PIP___P_ SH131997 -11.6925 158.505 52 0 -12.2947 157.800 30 52 980 274 -12.2947 157.800 55 980 -12.2947 157.800 55 980 -11.6925 158.505 TC 52 10 10
1996354S05170 1997 123 SP EA FERGUS 1996-12-25 00:00:00 TS -11.5200 158.280 55 975 bom main 251 197 O_____O_O___O_ jtwc_sh SH131997 -11.4000 158.700 55 0 -11.6000 158.000 30 55 975 4.00000 247 -11.6000 158.000 60 975 -11.6000 158.000 60 975 -11.4000 158.700 TC 55 10 36
1996354S05170 1997 123 SP EA FERGUS 1996-12-25 03:00:00 TS -11.2312 158.683 main 197 164 P_____PIP___P_ SH131997 -11.1125 158.928 57 0 -11.3104 158.520 30 55 975 257 -11.3104 158.520 60 975 -11.3104 158.520 60 975 -11.1125 158.928 TC 57 10 62
1996354S05170 1997 123 SP EA FERGUS 1996-12-25 06:00:00 TS -11.0800 159.140 55 975 bom main 164 141 O_____O_O___O_ jtwc_sh SH131997 -10.9000 159.200 60 0 -11.2000 159.100 30 55 975 4.00000 268 -11.2000 159.100 60 975 -11.2000 159.100 60 975 -10.9000 159.200 TC 60 8 71
1996354S05170 1997 123 SP EA FERGUS 1996-12-25 09:00:00 TS -10.9759 159.449 main 141 134 P_____PIP___P_ SH131997 -10.8050 159.507 62 0 -11.0899 159.410 30 55 975 254 -11.0899 159.410 60 975 -11.0899 159.410 60 975 -10.8050 159.507 TC 62 5 79
1996354S05170 1997 123 SP EA FERGUS 1996-12-25 12:00:00 TS -10.9800 159.680 55 975 bom main 134 134 O_____O_O___O_ jtwc_sh SH131997 -10.8000 159.800 65 1 -11.1000 159.600 30 55 975 4.00000 241 -11.1000 159.600 60 975 -11.1000 159.600 60 975 -10.8000 159.800 TC 65 4 108
1996354S05170 1997 123 SP EA FERGUS 1996-12-25 15:00:00 TS -11.0989 159.842 main 145 145 P_____PIP___P_ SH131997 -10.8200 160.015 67 1 -11.2849 159.727 30 55 975 254 -11.2849 159.727 60 975 -11.2849 159.727 60 975 -10.8200 160.015 TC 67 4 130
1996354S05170 1997 123 SP MM FERGUS 1996-12-25 18:00:00 TS -11.2600 160.020 55 975 bom main 168 152 O_____O_O___O_ jtwc_sh SH131997 -10.9000 160.200 70 1 -11.5000 159.900 30 55 975 4.00000 268 -11.5000 159.900 60 975 -11.5000 159.900 60 975 -10.9000 160.200 TC 70 6 117
1996354S05170 1997 123 SP MM FERGUS 1996-12-25 21:00:00 TS -11.3501 160.340 main 158 133 P_____PIP___P_ SH131997 -11.0275 160.393 72 1 -11.5652 160.315 30 57 975 268 -11.5652 160.300 60 975 -11.5652 160.300 60 975 -11.0275 160.393 TC 72 7 106
1996354S05170 1997 123 SP MM FERGUS 1996-12-26 00:00:00 TS -11.4400 160.660 60 975 nadi main 125 125 O_____O_O___O_ jtwc_sh SH131997 -11.2000 160.600 75 1 -11.6000 160.700 30 60 975 4.00000 268 -11.6000 160.700 60 975 -11.6000 160.700 60 975 -11.2000 160.600 TC 75 5 114
1996354S05170 1997 123 SP MM FERGUS 1996-12-26 03:00:00 TS -11.5634 160.830 main 135 129 P_____PIP___P_ SH131997 -11.3775 160.835 75 1 -11.6923 160.750 30 60 975 306 -11.6849 160.865 62 972 -11.6849 160.865 62 972 -11.3775 160.835 TC 75 4 130
1996354S05170 1997 123 SP MM FERGUS 1996-12-26 06:00:00 TS -11.7200 161.000 65 970 nadi main 133 129 O_____O_O___O_ jtwc_sh SH131997 -11.6000 161.100 75 1 -11.8000 160.800 30 60 975 4.00000 345 -11.8000 161.000 65 970 -11.8000 161.000 65 970 -11.6000 161.100 TC 75 5 128
1996354S05170 1997 123 SP MM FERGUS 1996-12-26 09:00:00 TS -11.9004 161.266 main 134 134 P_____PIP___P_ SH131997 -11.8774 161.363 75 1 -11.8775 161.125 30 62 975 360 -11.9349 161.240 65 970 -11.9349 161.240 65 970 -11.8774 161.363 TC 75 7 123
1996354S05170 1997 123 SP MM FERGUS 1996-12-26 12:00:00 TS -12.1200 161.640 65 970 nadi main 147 146 O_____O_O___O_ jtwc_sh SH131997 -12.2000 161.700 75 1 -12.0000 161.600 40 65 975 4.50000 376 -12.1000 161.600 65 970 -12.1000 161.600 65 970 -12.2000 161.700 TC 75 10 118
1996354S05170 1997 123 SP MM FERGUS 1996-12-26 15:00:00 TS -12.3480 162.136 main 167 167 P_____PIP___P_ SH131997 -12.5275 162.163 75 1 -12.1900 162.128 40 67 972 389 -12.2476 162.113 67 967 -12.2476 162.113 67 967 -12.5275 162.163 TC 75 12 118
1996354S05170 1997 123 SP MM FERGUS 1996-12-26 18:00:00 TS -12.6600 162.700 70 965 nadi main 217 217 O_____O_O___O_ jtwc_sh SH131997 -12.9000 162.700 75 1 -12.5000 162.700 40 70 970 4.50000 403 -12.5000 162.700 70 965 -12.5000 162.700 70 965 -12.9000 162.700 TC 75 13 123
1996354S05170 1997 123 SP MM FERGUS 1996-12-26 21:00:00 TS -13.0695 163.256 main 279 279 P_____PIP___P_ SH131997 -13.3125 163.258 75 1 -12.9024 163.250 40 70 970 341 -12.9100 163.258 70 965 -12.9100 163.258 70 965 -13.3125 163.258 TC 75 14 132
1996354S05170 1997 123 SP MM FERGUS 1996-12-27 00:00:00 TS -13.6200 163.800 70 965 nadi main 320 243 O_____O_O___O_ jtwc_sh SH131997 -13.8000 163.800 75 1 -13.5000 163.800 40 70 970 4.50000 280 -13.5000 163.800 70 965 -13.5000 163.800 70 965 -13.8000 163.800 TC 75 16 142
1996354S05170 1997 123 SP MM FERGUS 1996-12-27 03:00:00 TS -14.3418 164.295 main 243 185 P_____PIP___P_ SH131997 -14.3697 164.250 77 1 -14.3999 164.357 40 70 970 285 -14.2849 164.307 70 965 -14.2849 164.307 70 965 -14.3697 164.250 TC 77 18 147
1996354S05170 1997 123 SP MM FERGUS 1996-12-27 06:00:00 TS -15.1000 164.780 70 965 nadi main 185 143 O_____O_O___O_ jtwc_sh SH131997 -15.0000 164.700 80 1 -15.3000 164.900 40 70 970 4.50000 291 -15.1000 164.800 70 965 -15.1000 164.800 70 965 -15.0000 164.700 TC 80 17 145
1996354S05170 1997 123 SP MM FERGUS 1996-12-27 09:00:00 TS -15.7193 165.284 main 143 120 P_____PIP___P_ SH131997 -15.6424 165.228 82 1 -15.8522 165.393 40 70 970 279 -15.7298 165.286 72 962 -15.7298 165.286 72 962 -15.6424 165.228 TC 80 16 140
1996354S05170 1997 123 SP MM FERGUS 1996-12-27 12:00:00 TS -16.3000 165.820 75 960 nadi main 126 108 O_____O_O___O_ jtwc_sh SH131997 -16.3000 165.800 85 2 -16.3000 165.900 40 70 970 4.50000 268 -16.3000 165.800 75 960 -16.3000 165.800 75 960 -16.3000 165.800 TC 80 16 137
1996354S05170 1997 123 SP MM FERGUS 1996-12-27 15:00:00 TS -16.8920 166.422 main 115 100 P_____PIP___P_ SH131997 -16.9500 166.400 87 2 -16.8051 166.508 40 75 965 308 -16.8776 166.400 75 960 -16.8776 166.400 75 960 -16.9500 166.400 TC 85 17 137
1996354S05170 1997 123 SP MM FERGUS 1996-12-27 18:00:00 TS -17.5200 167.020 75 960 nadi main 113 113 O_____O_O___O_ jtwc_sh SH131997 -17.6000 167.000 90 2 -17.4000 167.100 40 80 960 5.00000 349 -17.5000 167.000 75 960 -17.5000 167.000 75 960 -17.6000 167.000 TC 90 17 142
1996354S05170 1997 123 SP MM FERGUS 1996-12-27 21:00:00 TS -18.2486 167.523 main 179 179 P_____PIP___P_ SH131997 -18.2646 167.543 90 2 -18.1995 167.543 40 82 957 349 -18.2571 167.493 77 957 -18.2571 167.493 77 957 -18.2646 167.543 TC 90 17 146
1996354S05170 1997 123 SP MM FERGUS 1996-12-28 00:00:00 TS -18.9579 168.042 80 955 nadi main 269 269 O_____O_O___O_ jtwc_sh SH131997 -18.9000 168.100 90 2 -19.0000 168.000 40 85 955 5.00000 349 -19.0000 168.000 80 955 -19.0000 168.000 80 955 -18.9000 168.100 TC 90 17 139
1996354S05170 1997 123 SP MM FERGUS 1996-12-28 03:00:00 TS -19.5293 168.683 main 338 334 P_____PIP___P_ SH131997 -19.4501 168.750 87 2 -19.6133 168.602 40 85 955 349 -19.5875 168.635 80 955 -19.5875 168.635 80 955 -19.4501 168.750 TC 87 17 132
1996354S05170 1997 123 SP MM FERGUS 1996-12-28 06:00:00 TS -20.0529 169.347 80 955 nadi main 334 334 O_____O_O___O_ jtwc_sh SH131997 -20.0000 169.400 85 2 -20.1000 169.300 40 85 955 5.00000 349 -20.1000 169.300 80 955 -20.1000 169.300 80 955 -20.0000 169.400 TC 85 16 132
1996354S05170 1997 123 SP MM FERGUS 1996-12-28 09:00:00 TS -20.6021 169.930 main 349 349 P______IP___P_ SH131997 -20.6271 169.958 85 2 40 -20.5771 169.901 80 955 -20.5771 169.901 80 955 -20.6271 169.958 TC 85 16 137
1996354S05170 1997 123 SP MM FERGUS 1996-12-28 12:00:00 TS -21.2000 170.500 80 955 nadi main 378 378 O_______O___O_ jtwc_sh SH131997 -21.3000 170.500 85 2 -21.1000 170.500 80 955 -21.1000 170.500 80 955 -21.3000 170.500 TC 85 17 139
1996354S05170 1997 123 SP MM FERGUS 1996-12-28 15:00:00 TS -21.8661 171.118 main 423 423 P______IP___P_ SH131997 -21.9850 171.100 82 1 -21.7473 171.136 80 955 -21.7473 171.136 80 955 -21.9850 171.100 TC 82 18 140
1996354S05170 1997 123 SP MM FERGUS 1996-12-28 18:00:00 TS -22.6000 171.750 80 955 nadi main 494 494 O_______O___O_ jtwc_sh SH131997 -22.7000 171.700 80 1 -22.5000 171.800 80 955 -22.5000 171.800 80 955 -22.7000 171.700 TC 80 19 142
1996354S05170 1997 123 SP MM FERGUS 1996-12-28 21:00:00 TS -23.3738 172.405 main 566 566 P______IP___P_ SH131997 -23.4272 172.258 77 1 -23.3204 172.552 77 957 -23.3204 172.552 77 957 -23.4272 172.258 TC 77 20 144
1996354S05170 1997 123 SP MM FERGUS 1996-12-29 00:00:00 TS -24.2000 173.000 75 960 nadi main 648 648 O_______O___O_ jtwc_sh SH131997 -24.2000 172.800 75 1 -24.2000 173.200 75 960 -24.2000 173.200 75 960 -24.2000 172.800 TC 75 20 150
1996354S05170 1997 123 SP MM FERGUS 1996-12-29 03:00:00 TS -25.0672 173.463 main 731 731 P______IP___P_ SH131997 -25.0199 173.358 72 1 -25.1144 173.569 72 962 -25.1144 173.569 72 962 -25.0199 173.358 TC 72 19 156
1996354S05170 1997 123 SP MM FERGUS 1996-12-29 06:00:00 TS -25.9500 173.850 70 965 wellington main 807 812 O_______O___O_ jtwc_sh SH131997 -25.9000 173.900 70 1 -26.0000 173.800 70 965 -26.0000 173.800 70 965 -25.9000 173.900 TC 70 18 158
1996354S05170 1997 123 SP MM FERGUS 1996-12-29 09:00:00 TS -26.7623 174.223 main 866 784 P______IP___P_ SH131997 -26.7900 174.423 67 1 -26.7347 174.022 67 967 -26.7347 174.022 67 967 -26.7900 174.423 TC 67 18 159
1996354S05170 1997 123 SP MM FERGUS 1996-12-29 12:00:00 TS -27.6500 174.600 65 970 wellington main 784 684 O_______O___O_ jtwc_sh SH131997 -27.8000 174.900 65 1 -27.5000 174.300 65 970 -27.5000 174.300 65 970 -27.8000 174.900 TC 65 21 159
1996354S05170 1997 123 SP MM FERGUS 1996-12-29 15:00:00 TS -28.6891 175.076 main 676 574 P______IP___P_ SH131997 -28.9901 175.352 65 1 -28.3882 174.799 62 972 -28.3882 174.799 62 972 -28.9901 175.352 TC 65 24 161
1996354S05170 1997 123 SP MM FERGUS 1996-12-29 18:00:00 TS -29.9000 175.500 60 975 wellington main 564 445 O_______O___O_ jtwc_sh SH131997 -30.3000 175.700 65 1 -29.5000 175.300 60 975 -29.5000 175.300 60 975 -30.3000 175.700 TC 65 26 168
1996354S05170 1997 123 SP MM FERGUS 1996-12-29 21:00:00 TS -31.2497 175.715 main 445 319 P______IP___P_ SH131997 -31.6198 175.875 65 1 -30.8797 175.554 57 977 -30.8797 175.554 57 977 -31.6198 175.875 TC 65 29 173
1996354S05170 1997 123 SP MM FERGUS 1996-12-30 00:00:00 TS -32.7667 175.907 55 979 wellington main 310 204 O_______O___O_ jtwc_sh SH131997 -33.0000 176.000 65 1 -32.5000 175.800 55 979 -32.5000 175.800 55 979 -33.0000 176.000 TC 65 32 172
1996354S05170 1997 123 SP MM FERGUS 1996-12-30 03:00:00 TS -34.3767 176.246 main 198 125 P______IP___P_ SH131997 -34.4200 176.221 62 0 -34.2656 176.230 50 983 -34.3455 176.303 52 980 -34.4200 176.221 TC 62 33 170
1996354S05170 1997 123 SP MM FERGUS 1996-12-30 06:00:00 TS -35.9769 176.615 50 982 wellington main 118 61 O_______O___O_ jtwc_sh SH131997 -35.9000 176.500 60 0 -36.1000 176.800 45 987 -36.1000 176.800 50 982 -35.9000 176.500 TC 60 31 170
1996354S05170 1997 123 SP MM FERGUS 1996-12-30 09:00:00 TS -37.3798 176.898 main 51 0 P_______P___P_ SH131997 -37.4350 176.828 57 0 -37.2695 177.036 42 984 -37.4350 176.828 TC 57 29 171
1996354S05170 1997 123 SP MM FERGUS 1996-12-30 12:00:00 TS -38.8000 177.200 35 986 wellington main 0 0 O_______O___O_ jtwc_sh SH131997 -39.0000 177.200 55 0 -38.5000 177.200 35 986 -39.0000 177.200 TC 55 32 171
1996354S05170 1997 123 SP MM FERGUS 1996-12-30 15:00:00 TS -40.5047 177.499 main 67 67 P_______P___P_ SH131997 -40.5551 177.591 55 0 -40.4543 177.407 35 983 -40.5551 177.591 TC 55 36 172
1996354S05170 1997 123 SP MM FERGUS 1996-12-30 18:00:00 TS -42.3667 177.867 35 981 wellington main 206 206 O_______O___O_ jtwc_sh SH131997 -42.1000 178.000 55 0 -42.5000 177.800 35 981 -42.1000 178.000 TC 55 37 169
1996354S05170 1997 123 SP MM FERGUS 1996-12-30 21:00:00 NR -44.1477 178.472 main 375 375 ________P_____ SH131997 -1 -44.1477 178.472 35 983 TC 33 160
1996354S05170 1997 123 SP MM FERGUS 1996-12-31 00:00:00 NR -45.5000 179.500 35 986 wellington main 534 534 ________O_____ -1 -45.5000 179.500 35 986 30 147
1996354S05170 1997 123 SP MM FERGUS 1996-12-31 03:00:00 NR -46.6459 180.792 main 670 670 ________P_____ -1 -46.6459 -179.208 32 986 29 134
1996354S05170 1997 123 SP MM FERGUS 1996-12-31 06:00:00 NR -47.5000 182.500 30 986 wellington main 829 829 ________O_____ -1 -47.5000 -177.500 30 986 30 119
1996354S05170 1997 123 SP MM FERGUS 1996-12-31 09:00:00 NR -48.0707 184.641 main 998 998 ________P_____ -1 -48.0707 -175.359 30 986 32 108
1996354S05170 1997 123 SP MM FERGUS 1996-12-31 12:00:00 NR -48.5000 187.000 30 986 wellington main 1179 1179 ________O_____ -1 -48.5000 -173.000 30 986 31 109
1996354S05170 1997 123 SP MM FERGUS 1996-12-31 15:00:00 NR -49.0977 189.118 main 1344 1344 ________P_____ -1 -49.0977 -170.882 30 985 30 114
1996354S05170 1997 123 SP MM FERGUS 1996-12-31 18:00:00 NR -49.7527 191.231 main 1513 1513 ________P_____ -1 -49.7527 -168.769 30 984 31 115
1996354S05170 1997 123 SP MM FERGUS 1996-12-31 21:00:00 NR -50.4089 193.479 main 1687 1687 ________P_____ -1 -50.4089 -166.521 30 983 33 112
1996354S05170 1997 123 SP MM FERGUS 1997-01-01 00:00:00 NR -51.0000 196.000 30 982 wellington main 1872 1872 ________O_____ -1 -51.0000 -164.000 30 982 36 107
1996354S05170 1997 123 SP MM FERGUS 1997-01-01 03:00:00 NR -51.4616 198.889 main 2077 2077 ________P_____ -1 -51.4616 -161.111 30 982 39 102
1996354S05170 1997 123 SP MM FERGUS 1997-01-01 06:00:00 NR -51.7781 202.089 main 2293 2293 ________P_____ -1 -51.7781 -157.911 30 982 41 97
1996354S05170 1997 123 SP MM FERGUS 1997-01-01 09:00:00 NR -51.9532 205.496 main 2520 2520 ________P_____ -1 -51.9532 -154.504 30 982 42 93
1996354S05170 1997 123 SP MM FERGUS 1997-01-01 12:00:00 NR -52.0000 209.000 30 982 wellington main 2570 ________O_____ -1 -52.0000 -151.000 30 982 43 91

デジタル台風データ・検索

IBTrACS Databaseについて

本データベースは、米国NOAAが公開する1842年以降の世界の熱帯低気圧のベストトラックデータアーカイブInternational Best Track Archive for Climate Stewardship (IBTrACS)を、ウェブで閲覧しやすい形式に変換したものです。

最終更新日:2021-10-21